Time;durP1;ratioP1;P1;durP2;ratioP2;P2;SDS_P1;SDS_P2;PMS_P1;PMS_P2;Temp;Humidity;BMP_temperature;BMP_pressure;BME280_temperature;BME280_humidity;BME280_pressure;Samples;Min_cycle;Max_cycle;Signal;HPM_P1;HPM_P2
2021/01/28 00:02:14;;;;;;;30.25;12.48;;;8.30;99.90;;;;;;5019926;28;20033;-79
2021/01/28 00:04:40;;;;;;;43.80;11.88;;;8.30;99.90;;;;;;5031216;28;20021;-79
2021/01/28 00:07:05;;;;;;;40.05;13.00;;;8.40;99.90;;;;;;5025490;28;20042;-79
2021/01/28 00:09:31;;;;;;;41.17;13.70;;;8.40;99.90;;;;;;5023948;28;20038;-79
2021/01/28 00:11:56;;;;;;;44.17;14.38;;;8.30;99.90;;;;;;5029502;28;20036;-79
2021/01/28 00:14:22;;;;;;;35.78;12.15;;;8.30;99.90;;;;;;5015869;28;20041;-78
2021/01/28 00:16:51;;;;;;;32.30;12.20;;;8.30;99.90;;;;;;5014973;28;20041;-78
2021/01/28 00:19:17;;;;;;;39.03;11.85;;;8.30;99.90;;;;;;5020341;28;20045;-79
2021/01/28 00:21:42;;;;;;;41.15;12.52;;;8.30;99.90;;;;;;5022214;28;20377;-78
2021/01/28 00:24:08;;;;;;;42.47;12.50;;;8.30;99.90;;;;;;5020859;28;20026;-78
2021/01/28 00:26:34;;;;;;;40.30;12.20;;;8.30;99.90;;;;;;5032296;28;20390;-78
2021/01/28 00:29:01;;;;;;;34.28;11.77;;;8.20;99.90;;;;;;5029602;28;20492;-78
2021/01/28 00:31:27;;;;;;;36.90;10.40;;;8.10;99.90;;;;;;5020156;28;20025;-78
2021/01/28 00:33:52;;;;;;;31.80;10.02;;;8.10;99.90;;;;;;5021328;28;20430;-78
2021/01/28 00:36:18;;;;;;;38.72;11.82;;;8.10;99.90;;;;;;5027738;28;20022;-78
2021/01/28 00:38:43;;;;;;;28.58;9.85;;;8.10;99.90;;;;;;5032757;28;20034;-78
2021/01/28 00:41:10;;;;;;;30.50;9.95;;;8.10;99.90;;;;;;5032564;28;20029;-77
2021/01/28 00:43:36;;;;;;;31.48;10.13;;;8.10;99.90;;;;;;5030615;28;20075;-80
2021/01/28 00:46:03;;;;;;;33.40;10.25;;;8.10;99.90;;;;;;5027793;28;20041;-78
2021/01/28 00:48:29;;;;;;;29.88;9.30;;;8.10;99.90;;;;;;5031270;28;20030;-78
2021/01/28 00:50:56;;;;;;;38.92;10.18;;;8.10;99.90;;;;;;5016058;28;20029;-78
2021/01/28 00:53:23;;;;;;;30.30;10.40;;;8.00;99.90;;;;;;5020867;28;20120;-78
2021/01/28 00:55:48;;;;;;;35.00;10.75;;;8.00;99.90;;;;;;5015419;28;20037;-78
2021/01/28 00:58:20;;;;;;;32.13;10.15;;;8.00;99.90;;;;;;5029886;28;20021;-78
2021/01/28 01:00:47;;;;;;;31.40;9.93;;;8.00;99.90;;;;;;5031545;28;20417;-78
2021/01/28 01:03:15;;;;;;;33.20;10.77;;;8.00;99.90;;;;;;5019907;28;20021;-78
2021/01/28 01:05:42;;;;;;;23.48;9.52;;;8.00;99.90;;;;;;5022098;28;20148;-78
2021/01/28 01:08:13;;;;;;;27.77;9.68;;;8.00;99.90;;;;;;5015465;28;20033;-78
2021/01/28 01:10:48;;;;;;;32.53;9.32;;;8.00;99.90;;;;;;5019286;28;20057;-78
2021/01/28 01:13:20;;;;;;;31.70;8.25;;;8.00;99.90;;;;;;5023087;28;20511;-78
2021/01/28 01:15:45;;;;;;;30.60;9.70;;;8.00;99.90;;;;;;5014831;28;20022;-78
2021/01/28 01:18:17;;;;;;;29.02;9.93;;;8.00;99.90;;;;;;5013824;28;20113;-78
2021/01/28 01:20:44;;;;;;;22.90;9.35;;;8.00;99.90;;;;;;5024534;28;20021;-78
2021/01/28 01:23:09;;;;;;;26.33;8.95;;;7.90;99.90;;;;;;5019725;28;20478;-78
2021/01/28 01:25:35;;;;;;;33.05;10.55;;;7.90;99.90;;;;;;5018143;28;20040;-78
2021/01/28 01:28:01;;;;;;;33.22;8.35;;;7.80;99.90;;;;;;5017259;28;20041;-78
2021/01/28 01:30:27;;;;;;;29.00;9.95;;;7.80;99.90;;;;;;5013693;28;20513;-78
2021/01/28 01:32:53;;;;;;;27.92;10.88;;;7.80;99.90;;;;;;5020858;28;20389;-78
2021/01/28 01:35:22;;;;;;;40.58;11.23;;;7.80;99.90;;;;;;5030719;28;20116;-78
2021/01/28 01:37:48;;;;;;;38.78;11.35;;;7.70;99.90;;;;;;5022779;28;20060;-79
2021/01/28 01:40:23;;;;;;;37.53;10.88;;;7.70;99.90;;;;;;5030708;28;20075;-78
2021/01/28 01:42:49;;;;;;;31.60;12.23;;;7.70;99.90;;;;;;5024081;28;20517;-78
2021/01/28 01:45:28;;;;;;;34.42;12.43;;;7.70;99.90;;;;;;5027946;28;20085;-78
2021/01/28 01:48:00;;;;;;;32.60;10.55;;;7.70;99.90;;;;;;5028373;28;20028;-78
2021/01/28 01:50:36;;;;;;;53.03;14.82;;;7.70;99.90;;;;;;5023663;28;20133;-78
2021/01/28 01:53:04;;;;;;;40.67;13.63;;;7.70;99.90;;;;;;5018431;28;20037;-79
2021/01/28 01:55:30;;;;;;;;;;;7.60;99.90;;;;;;5030130;28;20028;-78
2021/01/28 01:58:00;;;;;;;40.60;13.68;;;7.60;99.90;;;;;;5028670;28;19916;-79
2021/01/28 02:00:26;;;;;;;47.47;14.95;;;7.60;99.90;;;;;;5031804;28;20013;-78
2021/01/28 02:02:58;;;;;;;40.63;13.52;;;7.60;99.90;;;;;;5018455;28;20033;-78
2021/01/28 02:05:32;;;;;;;30.73;12.68;;;7.60;99.90;;;;;;5031347;28;20021;-78
2021/01/28 02:07:58;;;;;;;41.05;13.38;;;7.50;99.90;;;;;;5015798;28;20049;-78
2021/01/28 02:10:25;;;;;;;68.82;16.15;;;7.50;99.90;;;;;;5019791;28;20493;-78
2021/01/28 02:12:54;;;;;;;43.50;13.93;;;7.40;99.90;;;;;;5028430;28;20283;-78
2021/01/28 02:15:24;;;;;;;38.13;13.68;;;7.50;99.90;;;;;;5013488;28;20026;-78
2021/01/28 02:17:53;;;;;;;32.83;13.73;;;7.50;99.90;;;;;;5021422;28;20077;-78
2021/01/28 02:20:56;;;;;;;44.25;14.13;;;7.50;99.90;;;;;;5023395;28;20067;-78
2021/01/28 02:23:45;;;;;;;50.13;14.98;;;7.50;99.90;;;;;;5028418;28;20018;-78
2021/01/28 02:26:11;;;;;;;56.08;16.98;;;7.50;99.90;;;;;;5016723;28;20040;-78
2021/01/28 02:28:36;;;;;;;53.33;14.63;;;7.50;99.90;;;;;;5019663;28;20075;-78
2021/01/28 02:31:04;;;;;;;51.30;15.48;;;7.50;99.90;;;;;;5014886;28;20108;-78
2021/01/28 02:33:39;;;;;;;60.43;15.03;;;7.50;99.90;;;;;;5025472;28;20076;-78
2021/01/28 02:36:05;;;;;;;65.28;16.60;;;7.60;99.90;;;;;;5022217;28;20482;-79
2021/01/28 02:38:31;;;;;;;62.50;15.68;;;7.60;99.90;;;;;;5020489;28;20029;-78
2021/01/28 02:40:57;;;;;;;62.10;15.70;;;7.50;99.90;;;;;;5021604;28;20026;-78
2021/01/28 02:43:23;;;;;;;58.53;14.90;;;7.60;99.90;;;;;;5032967;28;20478;-80
2021/01/28 02:46:11;;;;;;;56.88;15.20;;;7.60;99.90;;;;;;5016367;28;20117;-79
2021/01/28 02:48:37;;;;;;;;;;;7.60;99.90;;;;;;5023864;28;20037;-78
2021/01/28 02:51:04;;;;;;;63.70;14.65;;;7.60;99.90;;;;;;5026184;28;19960;-78
2021/01/28 02:53:52;;;;;;;45.00;13.77;;;7.60;99.90;;;;;;5023418;28;20026;-78
2021/01/28 02:56:21;;;;;;;40.10;14.07;;;7.60;99.90;;;;;;5014690;28;20030;-78
2021/01/28 02:58:48;;;;;;;51.50;15.25;;;7.60;99.90;;;;;;5019607;28;20093;-78
2021/01/28 03:01:15;;;;;;;59.80;15.45;;;7.60;99.90;;;;;;5024323;28;20013;-78
2021/01/28 03:03:42;;;;;;;54.80;14.95;;;7.60;99.90;;;;;;5026913;28;20026;-78
2021/01/28 03:06:27;;;;;;;50.50;15.55;;;7.60;99.90;;;;;;5038362;28;20486;-78
2021/01/28 03:08:53;;;;;;;46.65;14.90;;;7.60;99.90;;;;;;5026371;28;20514;-78
2021/01/28 03:11:20;;;;;;;43.00;14.73;;;7.60;99.90;;;;;;5021274;28;20072;-78
2021/01/28 03:13:46;;;;;;;50.20;13.80;;;7.60;99.90;;;;;;5027443;28;20108;-79
2021/01/28 03:16:11;;;;;;;42.08;13.73;;;7.60;99.90;;;;;;5019515;28;20128;-78
2021/01/28 03:18:37;;;;;;;47.35;16.65;;;7.60;99.90;;;;;;5021572;28;20125;-79
2021/01/28 03:21:03;;;;;;;45.03;15.85;;;7.60;99.90;;;;;;5020683;28;20113;-78
2021/01/28 03:23:28;;;;;;;44.70;14.57;;;7.60;99.90;;;;;;5020698;28;20025;-79
2021/01/28 03:25:54;;;;;;;52.05;15.38;;;7.60;99.90;;;;;;5030274;28;20385;-78
2021/01/28 03:28:19;;;;;;;49.58;15.50;;;7.60;99.90;;;;;;5026517;28;20032;-78
2021/01/28 03:30:47;;;;;;;48.20;15.05;;;7.50;99.90;;;;;;5016336;28;20046;-79
2021/01/28 03:33:18;;;;;;;50.10;14.57;;;7.50;99.90;;;;;;5031793;28;20030;-79
2021/01/28 03:35:44;;;;;;;48.50;13.80;;;7.50;99.90;;;;;;5016394;28;20045;-78
2021/01/28 03:38:11;;;;;;;39.42;12.38;;;7.50;99.90;;;;;;5027735;28;20116;-78
2021/01/28 03:40:38;;;;;;;27.83;11.43;;;7.60;99.90;;;;;;5032944;28;20045;-78
2021/01/28 03:43:04;;;;;;;34.30;11.80;;;7.60;99.90;;;;;;5015349;28;20390;-78
2021/01/28 03:45:30;;;;;;;34.60;12.10;;;7.60;99.90;;;;;;5023601;28;20032;-78
2021/01/28 03:47:57;;;;;;;38.38;12.15;;;7.60;99.90;;;;;;5031046;28;20037;-79
2021/01/28 03:50:28;;;;;;;37.78;13.55;;;7.60;99.90;;;;;;5018617;28;20053;-79
2021/01/28 03:52:54;;;;;;;41.70;13.02;;;7.60;99.90;;;;;;5031563;28;20135;-79
2021/01/28 03:55:20;;;;;;;44.95;14.63;;;7.70;99.90;;;;;;5030718;28;20022;-79
2021/01/28 03:57:51;;;;;;;47.60;14.60;;;7.70;99.90;;;;;;5022029;28;20037;-80
2021/01/28 04:00:27;;;;;;;41.17;13.50;;;7.70;99.90;;;;;;5024097;28;20026;-80
2021/01/28 04:02:53;;;;;;;36.63;14.25;;;7.70;99.90;;;;;;5015409;28;20470;-79
2021/01/28 04:05:19;;;;;;;40.00;13.07;;;7.70;99.90;;;;;;5023753;28;20084;-79
2021/01/28 04:07:46;;;;;;;33.65;12.85;;;7.70;99.90;;;;;;5028995;28;20029;-79
2021/01/28 04:10:14;;;;;;;42.95;13.30;;;7.60;99.90;;;;;;5023783;28;20064;-79
2021/01/28 04:12:40;;;;;;;49.00;14.32;;;7.60;99.90;;;;;;5032617;28;20061;-79
2021/01/28 04:15:07;;;;;;;39.67;13.23;;;7.70;99.90;;;;;;5034202;28;20053;-79
2021/01/28 04:17:32;;;;;;;47.33;14.82;;;7.80;99.90;;;;;;5022559;28;20399;-80
2021/01/28 04:19:58;;;;;;;42.28;14.35;;;7.80;99.90;;;;;;5028138;28;20036;-79
2021/01/28 04:22:24;;;;;;;45.88;13.85;;;7.80;99.90;;;;;;5023598;28;20385;-79
2021/01/28 04:24:49;;;;;;;46.17;14.70;;;7.70;99.90;;;;;;5018887;28;20029;-79
2021/01/28 04:27:15;;;;;;;40.67;13.82;;;7.60;99.90;;;;;;5033755;28;20021;-79
2021/01/28 04:29:41;;;;;;;48.80;14.30;;;7.60;99.90;;;;;;5030889;28;20059;-79
2021/01/28 04:32:06;;;;;;;46.20;15.07;;;7.70;99.90;;;;;;5018552;28;20490;-79
2021/01/28 04:34:32;;;;;;;47.33;13.40;;;7.70;99.90;;;;;;5029627;28;20179;-79
2021/01/28 04:36:58;;;;;;;50.40;16.38;;;7.70;99.90;;;;;;5034287;28;20036;-79
2021/01/28 04:39:24;;;;;;;36.58;13.73;;;7.70;99.90;;;;;;5014618;28;20322;-79
2021/01/28 04:41:49;;;;;;;45.47;15.07;;;7.70;99.90;;;;;;5022883;28;20387;-80
2021/01/28 04:44:15;;;;;;;45.33;16.90;;;7.70;99.90;;;;;;5022542;28;20013;-79
2021/01/28 04:46:44;;;;;;;36.95;14.13;;;7.60;99.90;;;;;;5027700;28;20064;-79
2021/01/28 04:49:13;;;;;;;44.63;14.48;;;7.60;99.90;;;;;;5020326;28;20473;-80
2021/01/28 04:51:42;;;;;;;48.67;14.90;;;7.60;99.90;;;;;;5019552;28;20029;-79
2021/01/28 04:54:34;;;;;;;46.45;15.02;;;7.60;99.90;;;;;;5014768;28;20036;-79
2021/01/28 04:57:09;;;;;;;42.97;15.25;;;7.50;99.90;;;;;;5033810;28;20112;-79
2021/01/28 04:59:42;;;;;;;43.67;12.75;;;7.50;99.90;;;;;;5018724;28;20010;-79
2021/01/28 05:02:17;;;;;;;43.38;13.57;;;7.50;99.90;;;;;;5022124;28;20026;-79
2021/01/28 05:04:54;;;;;;;38.00;14.23;;;7.60;99.90;;;;;;5028457;28;20029;-79
2021/01/28 05:07:24;;;;;;;49.42;13.85;;;7.60;99.90;;;;;;5030956;28;20095;-79
2021/01/28 05:10:11;;;;;;;46.15;14.98;;;7.60;99.90;;;;;;5027365;28;20041;-80
2021/01/28 05:12:37;;;;;;;55.58;14.50;;;7.60;99.90;;;;;;5026608;28;20401;-79
2021/01/28 05:15:30;;;;;;;49.53;15.93;;;7.70;99.90;;;;;;5018877;28;20022;-80
2021/01/28 05:18:10;;;;;;;43.55;15.43;;;7.60;99.90;;;;;;5023089;28;20485;-80
2021/01/28 05:20:36;;;;;;;49.95;15.27;;;7.70;99.90;;;;;;5028600;28;20470;-79
2021/01/28 05:23:11;;;;;;;50.88;15.45;;;7.60;99.90;;;;;;5018901;28;20470;-79
2021/01/28 05:25:40;;;;;;;50.13;14.55;;;7.60;99.90;;;;;;5014905;28;20033;-79
2021/01/28 05:28:41;;;;;;;60.90;17.40;;;7.60;99.90;;;;;;5020369;28;20037;-80
2021/01/28 05:31:28;;;;;;;54.10;15.73;;;7.50;99.90;;;;;;5021747;28;20091;-79
2021/01/28 05:34:11;;;;;;;58.35;15.60;;;7.40;99.90;;;;;;5033779;28;20429;-79
2021/01/28 05:36:41;;;;;;;53.08;14.85;;;7.40;99.90;;;;;;5021005;28;20033;-79
2021/01/28 05:39:30;;;;;;;50.97;15.15;;;7.40;99.90;;;;;;5022307;28;20478;-79
2021/01/28 05:42:14;;;;;;;58.08;15.95;;;7.40;99.90;;;;;;5023529;28;20202;-80
2021/01/28 05:44:40;;;;;;;44.83;14.90;;;7.50;99.90;;;;;;5026942;28;20021;-80
2021/01/28 05:47:13;;;;;;;49.08;15.75;;;7.40;99.90;;;;;;5020396;28;20036;-82
2021/01/28 05:49:42;;;;;;;50.08;15.18;;;7.40;99.90;;;;;;5028808;28;20033;-82
2021/01/28 05:52:29;;;;;;;54.70;16.52;;;7.30;99.90;;;;;;5030069;28;20037;-82
2021/01/28 05:55:09;;;;;;;50.97;15.43;;;7.40;99.90;;;;;;5016221;28;20054;-82
2021/01/28 05:57:56;;;;;;;53.33;15.18;;;7.30;99.90;;;;;;5034485;28;20092;-82
2021/01/28 06:00:32;;;;;;;54.72;15.98;;;7.30;99.90;;;;;;5019770;28;20048;-81
2021/01/28 06:03:13;;;;;;;48.08;14.35;;;7.30;99.90;;;;;;5025006;28;20034;-83
2021/01/28 06:05:45;;;;;;;53.30;15.43;;;7.30;99.90;;;;;;5018996;28;20029;-83
2021/01/28 06:08:34;;;;;;;48.17;14.27;;;7.20;99.90;;;;;;5025793;28;20037;-83
2021/01/28 06:11:20;;;;;;;53.83;15.30;;;7.20;99.90;;;;;;5029572;28;20214;-84
2021/01/28 06:14:10;;;;;;;53.80;14.13;;;7.20;99.90;;;;;;5032817;28;20037;-84
2021/01/28 06:17:06;;;;;;;46.88;12.63;;;7.20;99.90;;;;;;5025957;28;20041;-84
2021/01/28 06:19:37;;;;;;;45.53;12.98;;;7.20;99.90;;;;;;4998368;28;20430;-83
2021/01/28 06:22:19;;;;;;;46.47;12.68;;;7.20;99.90;;;;;;5017672;28;20509;-83
2021/01/28 06:24:49;;;;;;;47.42;12.90;;;7.20;99.90;;;;;;5016138;28;20124;-83
2021/01/28 06:27:45;;;;;;;34.75;10.48;;;7.20;99.90;;;;;;5030767;28;20036;-83
2021/01/28 06:30:37;;;;;;;32.50;10.20;;;7.20;99.90;;;;;;5014938;28;20073;-81
2021/01/28 06:33:15;;;;;;;37.70;11.25;;;7.20;99.90;;;;;;5027199;28;20064;-82
2021/01/28 06:35:50;;;;;;;39.95;12.32;;;7.20;99.90;;;;;;5023263;28;20062;-81
2021/01/28 06:38:37;;;;;;;38.90;10.73;;;7.20;99.90;;;;;;5024296;28;20037;-82
2021/01/28 06:41:07;;;;;;;36.15;10.13;;;7.10;99.90;;;;;;5014757;28;20081;-80
2021/01/28 06:43:54;;;;;;;30.88;10.05;;;7.10;99.90;;;;;;5020383;28;20029;-81
2021/01/28 06:46:42;;;;;;;30.30;9.45;;;7.20;99.90;;;;;;5028754;28;20512;-81
2021/01/28 06:49:20;;;;;;;30.00;9.45;;;7.20;99.90;;;;;;5033863;28;20033;-81
2021/01/28 06:52:02;;;;;;;24.73;8.55;;;7.10;99.90;;;;;;5030978;28;20501;-81
2021/01/28 06:54:37;;;;;;;28.38;9.35;;;7.20;99.90;;;;;;5013049;28;20387;-81
2021/01/28 06:57:34;;;;;;;24.02;8.10;;;7.20;99.90;;;;;;5028118;28;20026;-81
2021/01/28 07:00:25;;;;;;;22.80;8.00;;;7.20;99.90;;;;;;5032838;28;20401;-82
2021/01/28 07:03:19;;;;;;;24.85;8.25;;;7.20;99.90;;;;;;5030001;28;20034;-82
2021/01/28 07:06:07;;;;;;;21.17;7.47;;;7.20;99.90;;;;;;5029454;28;20100;-82
2021/01/28 07:08:42;;;;;;;22.05;8.45;;;7.10;99.90;;;;;;5024892;28;20038;-81
2021/01/28 07:11:21;;;;;;;23.35;7.80;;;7.20;99.90;;;;;;5026960;28;20033;-81
2021/01/28 07:13:47;;;;;;;20.00;7.40;;;7.10;99.90;;;;;;5026891;28;20042;-83
2021/01/28 07:16:29;;;;;;;21.67;6.63;;;7.10;99.90;;;;;;5024311;28;20156;-81
2021/01/28 07:19:09;;;;;;;10.75;5.30;;;7.00;99.90;;;;;;5021570;28;20057;-82
2021/01/28 07:21:47;;;;;;;16.00;5.97;;;7.00;99.90;;;;;;5022727;28;20056;-82
2021/01/28 07:24:34;;;;;;;22.95;6.38;;;7.00;99.90;;;;;;5034782;28;20512;-82
2021/01/28 07:27:07;;;;;;;13.88;6.57;;;7.00;99.90;;;;;;5018463;28;20565;-84
2021/01/28 07:29:45;;;;;;;13.15;5.30;;;6.90;99.90;;;;;;5022837;28;20017;-83
2021/01/28 07:32:33;;;;;;;15.35;5.30;;;7.00;99.90;;;;;;5018523;28;20030;-83
2021/01/28 07:35:26;;;;;;;17.17;5.60;;;7.00;99.90;;;;;;5027519;28;20089;-84
2021/01/28 07:37:54;;;;;;;11.00;5.15;;;7.00;99.90;;;;;;5025673;28;20412;-84
2021/01/28 07:40:59;;;;;;;14.40;5.22;;;6.90;99.90;;;;;;5029247;28;20048;-84
2021/01/28 07:43:34;;;;;;;12.25;5.13;;;6.90;99.90;;;;;;5019711;28;20026;-84
2021/01/28 07:46:28;;;;;;;15.32;5.13;;;6.90;99.90;;;;;;5015323;28;20034;-83
2021/01/28 07:49:12;;;;;;;11.73;5.05;;;6.90;99.90;;;;;;5022923;28;20065;-83
2021/01/28 07:51:46;;;;;;;11.65;4.20;;;6.90;99.90;;;;;;5029947;28;20029;-83
2021/01/28 07:54:24;;;;;;;9.38;4.18;;;6.90;99.90;;;;;;5031315;28;20049;-85
2021/01/28 07:56:52;;;;;;;7.50;3.45;;;6.90;99.90;;;;;;5022611;28;20041;-84
2021/01/28 07:59:42;;;;;;;9.68;3.53;;;6.90;99.90;;;;;;5028615;28;20017;-84
2021/01/28 08:02:30;;;;;;;10.45;3.92;;;6.80;99.90;;;;;;5024901;28;20037;-82
2021/01/28 08:05:05;;;;;;;8.57;3.53;;;6.80;99.90;;;;;;5017355;28;20030;-83
2021/01/28 08:07:40;;;;;;;8.98;3.35;;;6.70;99.90;;;;;;5016162;28;20164;-84
2021/01/28 08:10:06;;;;;;;8.23;3.75;;;6.70;99.90;;;;;;5017333;28;20025;-85
2021/01/28 08:12:34;;;;;;;6.75;3.72;;;6.70;99.90;;;;;;5017754;28;20045;-83
2021/01/28 08:15:01;;;;;;;8.20;3.38;;;6.60;99.90;;;;;;5016260;28;20034;-84
2021/01/28 08:17:32;;;;;;;7.38;3.00;;;6.70;99.90;;;;;;5017264;28;20175;-84
2021/01/28 08:20:23;;;;;;;7.20;3.05;;;6.60;99.90;;;;;;5016117;28;20076;-84
2021/01/28 08:22:56;;;;;;;6.15;3.15;;;6.50;99.90;;;;;;5020319;28;20021;-83
2021/01/28 08:25:23;;;;;;;6.43;2.95;;;6.60;99.90;;;;;;5028845;28;20485;-83
2021/01/28 08:27:49;;;;;;;6.18;3.63;;;6.60;99.90;;;;;;5028158;28;20030;-84
2021/01/28 08:30:21;;;;;;;8.85;4.25;;;6.60;99.90;;;;;;5023490;28;20028;-85
2021/01/28 08:32:52;;;;;;;6.18;3.63;;;6.60;99.90;;;;;;5034939;28;20160;-84
2021/01/28 08:35:35;;;;;;;7.00;3.05;;;6.60;99.90;;;;;;5027930;28;20026;-83
2021/01/28 08:38:19;;;;;;;31.00;3.55;;;6.70;99.90;;;;;;5020890;28;20025;-82
2021/01/28 08:40:55;;;;;;;7.28;2.83;;;6.70;99.90;;;;;;5025892;28;20033;-83
2021/01/28 08:43:21;;;;;;;8.05;3.40;;;6.60;99.90;;;;;;5032428;28;20033;-82
2021/01/28 08:45:47;;;;;;;7.65;3.83;;;6.60;99.90;;;;;;5033216;28;20025;-83
2021/01/28 08:48:22;;;;;;;7.05;3.65;;;6.70;99.90;;;;;;5020424;28;20049;-81
2021/01/28 08:50:48;;;;;;;5.75;3.20;;;6.60;99.90;;;;;;5022368;28;20055;-82
2021/01/28 08:53:19;;;;;;;4.57;3.05;;;6.60;99.90;;;;;;5024813;28;20032;-81
2021/01/28 08:55:45;;;;;;;7.97;3.30;;;6.60;99.90;;;;;;5018994;28;20504;-83
2021/01/28 08:58:24;;;;;;;7.50;4.15;;;6.60;99.90;;;;;;5030424;28;20034;-81
2021/01/28 09:00:56;;;;;;;5.57;2.90;;;6.60;99.90;;;;;;5021214;28;20479;-80
2021/01/28 09:03:46;;;;;;;5.70;3.25;;;6.60;99.90;;;;;;5013936;28;20045;-84
2021/01/28 09:06:12;;;;;;;7.22;2.95;;;6.60;99.90;;;;;;5026288;28;20520;-83
2021/01/28 09:08:40;;;;;;;6.07;2.95;;;6.60;99.90;;;;;;5027649;28;20057;-80
2021/01/28 09:11:09;;;;;;;4.32;3.10;;;6.60;99.90;;;;;;5026108;28;20029;-80
2021/01/28 09:13:35;;;;;;;6.05;3.22;;;6.50;99.90;;;;;;5023098;28;20028;-80
2021/01/28 09:16:15;;;;;;;6.00;2.78;;;6.50;99.90;;;;;;5022482;28;20504;-80
2021/01/28 09:18:43;;;;;;;5.32;2.72;;;6.50;99.90;;;;;;5033305;28;20033;-79
2021/01/28 09:21:20;;;;;;;5.38;3.13;;;6.40;99.90;;;;;;5020050;28;20553;-81
2021/01/28 09:24:14;;;;;;;4.55;3.00;;;6.40;99.90;;;;;;5022773;28;20076;-82
2021/01/28 09:26:40;;;;;;;5.43;2.55;;;6.40;99.90;;;;;;5017214;28;20544;-81
2021/01/28 09:29:30;;;;;;;3.80;2.80;;;6.40;99.90;;;;;;5029359;28;20021;-81
2021/01/28 09:32:08;;;;;;;3.78;2.55;;;6.50;99.90;;;;;;5023539;28;20048;-81
2021/01/28 09:34:34;;;;;;;3.40;2.60;;;6.40;99.90;;;;;;5015118;28;20028;-79
2021/01/28 09:37:14;;;;;;;4.85;3.05;;;6.40;99.90;;;;;;5018980;28;20022;-81
2021/01/28 09:39:49;;;;;;;4.18;2.40;;;6.40;99.90;;;;;;5025402;28;20075;-82
2021/01/28 09:42:21;;;;;;;5.47;2.83;;;6.50;99.90;;;;;;5013677;28;20018;-78
2021/01/28 09:44:50;;;;;;;2.67;2.17;;;6.40;99.90;;;;;;5014207;28;20030;-80
2021/01/28 09:47:26;;;;;;;6.35;2.47;;;6.40;99.90;;;;;;5023632;28;20052;-80
2021/01/28 09:50:00;;;;;;;2.65;2.20;;;6.40;99.90;;;;;;5020261;28;20056;-80
2021/01/28 09:52:32;;;;;;;5.05;2.75;;;6.40;99.90;;;;;;5033624;28;20021;-81
2021/01/28 09:55:04;;;;;;;3.35;2.05;;;6.40;99.90;;;;;;5033062;28;20034;-80
2021/01/28 09:57:30;;;;;;;2.33;2.13;;;6.50;99.90;;;;;;5031853;28;20025;-84
2021/01/28 09:59:57;;;;;;;3.20;2.33;;;6.40;99.90;;;;;;5022831;28;20331;-83
2021/01/28 10:02:41;;;;;;;3.70;2.38;;;6.40;99.90;;;;;;5015991;28;20497;-84
2021/01/28 10:05:08;;;;;;;2.53;2.10;;;6.50;99.90;;;;;;5026597;28;20022;-81
2021/01/28 10:07:33;;;;;;;4.80;2.60;;;6.40;99.90;;;;;;5030462;28;20084;-82
2021/01/28 10:09:59;;;;;;;3.63;2.22;;;6.40;99.90;;;;;;5018870;28;20052;-81
2021/01/28 10:12:26;;;;;;;4.95;2.88;;;6.50;99.90;;;;;;5033293;28;20057;-82
2021/01/28 10:14:53;;;;;;;2.77;2.03;;;6.50;99.90;;;;;;5032044;28;20021;-83
2021/01/28 10:17:22;;;;;;;4.13;2.40;;;6.50;99.90;;;;;;5035007;28;20292;-84
2021/01/28 10:19:48;;;;;;;3.42;2.42;;;6.40;99.90;;;;;;5021630;28;20433;-81
2021/01/28 10:22:15;;;;;;;3.30;2.38;;;6.40;99.90;;;;;;5017438;28;20029;-81
2021/01/28 10:24:41;;;;;;;3.65;1.85;;;6.40;99.90;;;;;;5019470;28;20041;-81
2021/01/28 10:27:07;;;;;;;3.42;1.55;;;6.40;99.90;;;;;;5015991;28;20041;-81
2021/01/28 10:29:33;;;;;;;3.40;2.70;;;6.40;99.90;;;;;;5018403;28;20104;-79
2021/01/28 10:31:59;;;;;;;5.57;2.47;;;6.50;99.90;;;;;;5024924;28;20514;-81
2021/01/28 10:34:25;;;;;;;4.38;2.05;;;6.40;99.90;;;;;;5017237;28;20116;-80
2021/01/28 10:36:51;;;;;;;2.92;2.00;;;6.40;99.90;;;;;;5036981;28;20498;-79
2021/01/28 10:39:17;;;;;;;2.95;1.75;;;6.40;99.90;;;;;;5015581;28;20033;-79
2021/01/28 10:41:52;;;;;;;5.57;2.00;;;6.40;99.90;;;;;;5017387;28;20072;-78
2021/01/28 10:44:18;;;;;;;4.32;2.22;;;6.40;99.90;;;;;;5015058;28;20396;-79
2021/01/28 10:46:44;;;;;;;3.13;2.03;;;6.40;99.90;;;;;;5014087;28;20061;-79
2021/01/28 10:49:10;;;;;;;2.40;1.65;;;6.40;99.90;;;;;;5018293;28;20514;-78
2021/01/28 10:51:37;;;;;;;1.90;1.73;;;6.40;99.90;;;;;;5019332;28;20030;-78
2021/01/28 10:54:03;;;;;;;4.20;2.13;;;6.50;99.90;;;;;;5021605;28;20036;-79
2021/01/28 10:56:29;;;;;;;3.00;2.10;;;6.50;99.90;;;;;;5013611;28;20055;-79
2021/01/28 10:58:55;;;;;;;3.70;1.67;;;6.50;99.90;;;;;;5019535;28;20065;-79
2021/01/28 11:01:21;;;;;;;2.25;1.88;;;6.50;99.90;;;;;;5019053;28;20044;-79
2021/01/28 11:03:47;;;;;;;5.13;2.30;;;6.60;99.90;;;;;;5019522;28;20170;-80
2021/01/28 11:06:13;;;;;;;1.83;1.60;;;6.60;99.90;;;;;;5016641;28;20491;-79
2021/01/28 11:08:39;;;;;;;1.85;1.50;;;6.60;99.90;;;;;;5014473;28;20393;-79
2021/01/28 11:11:05;;;;;;;2.75;1.85;;;6.70;99.90;;;;;;5014574;28;20163;-78
2021/01/28 11:13:31;;;;;;;3.75;1.55;;;6.70;99.90;;;;;;5023484;28;20061;-79
2021/01/28 11:15:57;;;;;;;3.50;2.28;;;6.70;99.90;;;;;;5020012;28;20143;-79
2021/01/28 11:18:22;;;;;;;3.67;2.00;;;6.60;99.90;;;;;;5018396;28;20050;-79
2021/01/28 11:20:48;;;;;;;3.67;2.08;;;6.60;99.90;;;;;;5014747;28;20033;-79
2021/01/28 11:23:14;;;;;;;5.15;1.77;;;6.70;99.90;;;;;;5014120;28;20547;-84
2021/01/28 11:25:39;;;;;;;2.72;2.08;;;6.70;99.90;;;;;;5020287;28;20486;-83
2021/01/28 11:28:05;;;;;;;2.83;1.92;;;6.70;99.90;;;;;;5022596;28;20022;-83
2021/01/28 11:30:33;;;;;;;2.20;1.98;;;6.80;99.90;;;;;;5025125;28;20037;-81
2021/01/28 11:33:00;;;;;;;3.50;1.70;;;6.70;99.90;;;;;;5026650;28;20405;-80
2021/01/28 11:35:30;;;;;;;2.17;1.70;;;6.80;99.90;;;;;;5018483;28;20048;-80
2021/01/28 11:38:00;;;;;;;3.88;2.08;;;6.80;99.90;;;;;;5020110;28;20026;-80
2021/01/28 11:40:27;;;;;;;4.90;2.30;;;6.80;99.90;;;;;;5026871;28;20112;-80
2021/01/28 11:42:53;;;;;;;10.35;2.20;;;6.80;99.90;;;;;;5015087;28;20041;-80
2021/01/28 11:45:23;;;;;;;3.40;2.10;;;6.80;99.90;;;;;;5019139;28;20021;-80
2021/01/28 11:47:48;;;;;;;5.07;2.63;;;6.80;99.90;;;;;;5027186;28;20034;-80
2021/01/28 11:50:15;;;;;;;6.97;2.85;;;6.80;99.90;;;;;;5024088;28;20372;-80
2021/01/28 11:52:40;;;;;;;4.57;3.22;;;6.70;99.90;;;;;;5022945;28;20045;-80
2021/01/28 11:55:09;;;;;;;3.90;3.03;;;6.80;99.90;;;;;;5023071;28;20033;-79
2021/01/28 11:57:35;;;;;;;4.95;3.78;;;6.80;99.90;;;;;;5018453;28;20033;-79
2021/01/28 12:00:01;;;;;;;4.35;3.65;;;6.80;99.90;;;;;;5020543;28;20075;-79
2021/01/28 12:02:26;;;;;;;6.82;5.07;;;6.70;99.90;;;;;;5017368;28;20025;-80
2021/01/28 12:04:52;;;;;;;8.50;3.92;;;6.70;99.90;;;;;;5022487;28;20501;-80
2021/01/28 12:07:18;;;;;;;7.00;4.10;;;6.70;99.90;;;;;;5014759;28;20065;-80
2021/01/28 12:09:45;;;;;;;8.82;4.22;;;6.70;99.90;;;;;;5023052;28;20393;-80
2021/01/28 12:12:11;;;;;;;7.63;5.10;;;6.70;99.90;;;;;;5013815;28;20057;-80
2021/01/28 12:14:37;;;;;;;7.50;4.57;;;6.80;99.90;;;;;;5018839;28;20079;-81
2021/01/28 12:17:03;;;;;;;10.45;5.10;;;6.80;99.90;;;;;;5015869;28;20450;-80
2021/01/28 12:19:30;;;;;;;7.22;5.50;;;6.80;99.90;;;;;;5017314;28;20053;-80
2021/01/28 12:21:56;;;;;;;8.43;5.38;;;6.80;99.90;;;;;;5021334;28;20141;-80
2021/01/28 12:24:21;;;;;;;11.43;5.65;;;6.80;99.90;;;;;;5021084;28;20112;-79
2021/01/28 12:26:47;;;;;;;7.60;5.05;;;6.90;99.90;;;;;;5019702;28;20118;-80
2021/01/28 12:29:12;;;;;;;7.18;5.35;;;7.00;99.90;;;;;;5024088;28;20028;-78
2021/01/28 12:31:38;;;;;;;8.40;5.53;;;6.90;99.90;;;;;;5017936;28;20032;-80
2021/01/28 12:34:04;;;;;;;7.90;5.15;;;6.90;99.90;;;;;;5015695;28;20371;-80
2021/01/28 12:36:30;;;;;;;7.78;5.28;;;6.90;99.90;;;;;;5014803;28;20024;-78
2021/01/28 12:38:55;;;;;;;9.23;5.88;;;6.90;99.90;;;;;;5021395;28;20067;-79
2021/01/28 12:41:21;;;;;;;8.23;5.85;;;6.90;99.90;;;;;;5022287;28;20018;-79
2021/01/28 12:43:47;;;;;;;7.90;5.53;;;7.00;99.90;;;;;;5022928;28;20370;-78
2021/01/28 12:46:13;;;;;;;8.38;5.15;;;7.00;99.90;;;;;;5025803;28;20060;-80
2021/01/28 12:48:38;;;;;;;8.68;5.20;;;7.00;99.90;;;;;;5022064;28;20025;-80
2021/01/28 12:51:04;;;;;;;8.40;5.25;;;6.90;99.90;;;;;;5024885;28;20081;-79
2021/01/28 12:53:30;;;;;;;8.32;5.03;;;6.80;99.90;;;;;;5026374;28;20120;-80
2021/01/28 12:55:56;;;;;;;7.15;5.50;;;6.90;99.90;;;;;;5019860;28;20056;-81
2021/01/28 12:58:22;;;;;;;7.13;5.15;;;6.90;99.90;;;;;;5020680;28;20453;-79
2021/01/28 13:00:48;;;;;;;7.05;4.90;;;6.90;99.90;;;;;;5022827;28;20112;-79
2021/01/28 13:03:13;;;;;;;7.22;5.28;;;6.90;99.90;;;;;;5024832;28;20454;-79
2021/01/28 13:05:39;;;;;;;6.10;4.93;;;7.00;99.90;;;;;;5024148;28;20095;-80
2021/01/28 13:08:05;;;;;;;7.47;4.95;;;6.90;99.90;;;;;;5022809;28;20040;-80